Terminal Aerodrome Forecast
Issued by NWS

Home | Current Version | Previous Version | Text Only | Print | Product List | Glossary On
Versions: 1 2 3 4 5 6 7 8 9 10 11 12 13 14 15 16 17
000
FTUS46 KMFR 270544
TAFOTH
TAF
KOTH 270544Z 2706/2806 30010KT P6SM -RA OVC006
     FM270900 29010KT P6SM -RA OVC003
     FM272100 28012G18KT P6SM -SHRA VCTS BKN007 OVC025CB
     FM280300 VRB05KT P6SM -SHRA BKN025 OVC050=

USA.gov is the U.S. government's official web portal to all federal, state and local government web resources and services.